153 км

Карта отелей и гостиниц, располагающихся рядом с аэропортом 153 км :

153 км Красноярский край 69° 28' 9.3612" N, 85° 56' 26.88" E
153 км Красноярский край 69° 28' 9.3612" N, 85° 56' 26.88" E
Код аэродрома ИКАО
HDT5
Код аэродрома RU
ХДТ5
Координаты
N69.46927° E085.94080°
Превышение над уровнем моря
25
Основная полоса
Курс магнитный
Длина основной ВПП
Ширина основной ВПП
Покрытие основной ВПП
Освещение ВПП
Тип: 
Вертодром
Класс аэродрома: 
Принадлежность: 
ГА
Статус: 
Действующий
Сайт: 
E-mail аэродрома: 
Страна: 
Россия
Регион: 
Красноярский край
Город: 
Дополнительная информация: 

Найти трансфер

С помощью этой формы Вы можете найти трансфер из аэропорта 153 км в город, аэропорт или вокзал:

Карта места

Javascript is required to view this map.

Погода в аэропортах:

Авиационная погода в Сыктывкаре

Регион: 
Погода METAR: 
UUYY 061030Z 20003MPS 7000 3400N BR SCT003 M18/M20 Q1025 R18/420345 TEMPO 1000 BR RMK QBB100 QFE760/1013
Время наблюдения
2021-12-06T10:30:00Z
Температура C
-18.0
Точка росы
-20.0
Направление ветра
200
Скорость ветра (узлы)
6
Метео видимость
4.35
Явления погоды
BR
Условия полета
MVFR
Аэропорт подробнее: 

Авиационная погода в Москве - Остафьево

Погода METAR: 
UUMO 061030Z 14005MPS 4000 -SN OVC005 M04/M05 Q1020 RESN R25/820245 NOSIG RMK QBB160 QFE750/1000
Время наблюдения
2021-12-06T10:30:00Z
Температура C
-4.0
Точка росы
-5.0
Направление ветра
140
Скорость ветра (узлы)
10
Метео видимость
2.49
Явления погоды
-SN
Условия полета
IFR
Аэропорт подробнее: 

Авиационная погода в Москва - Шереметьево

Погода METAR: 
UUEE 061030Z 08005MPS 6000 2500SW BR OVC005 M07/M08 Q1020 R06R/520340 R06C/520340 TEMPO 1000 -FZDZ BR
Время наблюдения
2021-12-06T10:30:00Z
Температура C
-7.0
Точка росы
-8.0
Направление ветра
80
Скорость ветра (узлы)
10
Метео видимость
3.73
Явления погоды
BR
Условия полета
IFR
Аэропорт подробнее: 

Авиационная погода в Кневичи

Регион: 
Погода METAR: 
UHWW 061030Z 32002MPS 0300 0100N R25L/2000D FZFG VV001 M04/M05 Q1026 R25L/0///70 NOSIG RMK QBB050 MT OBSC QFE768
Время наблюдения
2021-12-06T10:30:00Z
Температура C
-4.0
Точка росы
-5.0
Направление ветра
320
Скорость ветра (узлы)
4
Метео видимость
0.19
Явления погоды
FZFG
Условия полета
LIFR
Аэропорт подробнее: